sensor_id;sensor_type;location;lat;lon;timestamp;pressure;altitude;pressure_sealevel;temperature
71205;BMP180;58935;54.498;18.544;2024-02-23T00:02:51;97900.60;;;7.50
71205;BMP180;58935;54.498;18.544;2024-02-23T00:05:23;97902.80;;;7.50
71205;BMP180;58935;54.498;18.544;2024-02-23T00:07:54;97904.80;;;7.50
71205;BMP180;58935;54.498;18.544;2024-02-23T00:10:24;97904.60;;;7.50
71205;BMP180;58935;54.498;18.544;2024-02-23T00:12:55;97903.60;;;7.50
71205;BMP180;58935;54.498;18.544;2024-02-23T00:15:26;97892.80;;;7.50
71205;BMP180;58935;54.498;18.544;2024-02-23T00:17:57;97891.40;;;7.50
71205;BMP180;58935;54.498;18.544;2024-02-23T00:31:41;97862.20;;;7.48
71205;BMP180;58935;54.498;18.544;2024-02-23T00:34:11;97851.80;;;7.44
71205;BMP180;58935;54.498;18.544;2024-02-23T00:36:42;97844.40;;;7.40
71205;BMP180;58935;54.498;18.544;2024-02-23T00:39:13;97841.20;;;7.40
71205;BMP180;58935;54.498;18.544;2024-02-23T00:41:43;97838.60;;;7.40
71205;BMP180;58935;54.498;18.544;2024-02-23T00:47:54;97843.20;;;7.40
71205;BMP180;58935;54.498;18.544;2024-02-23T00:50:25;97840.40;;;7.42
71205;BMP180;58935;54.498;18.544;2024-02-23T00:52:57;97842.40;;;7.50
71205;BMP180;58935;54.498;18.544;2024-02-23T00:55:26;97838.00;;;7.50
71205;BMP180;58935;54.498;18.544;2024-02-23T00:57:57;97833.40;;;7.50
71205;BMP180;58935;54.498;18.544;2024-02-23T01:00:29;97831.00;;;7.50
71205;BMP180;58935;54.498;18.544;2024-02-23T01:03:11;97834.00;;;7.50
71205;BMP180;58935;54.498;18.544;2024-02-23T01:05:40;97825.60;;;7.50
71205;BMP180;58935;54.498;18.544;2024-02-23T01:08:10;97824.20;;;7.50
71205;BMP180;58935;54.498;18.544;2024-02-23T01:10:40;97810.60;;;7.50
71205;BMP180;58935;54.498;18.544;2024-02-23T01:13:10;97813.80;;;7.56
71205;BMP180;58935;54.498;18.544;2024-02-23T01:15:40;97808.00;;;7.60
71205;BMP180;58935;54.498;18.544;2024-02-23T01:18:10;97813.40;;;7.60
71205;BMP180;58935;54.498;18.544;2024-02-23T01:20:40;97806.60;;;7.60
71205;BMP180;58935;54.498;18.544;2024-02-23T01:23:09;97803.40;;;7.60
71205;BMP180;58935;54.498;18.544;2024-02-23T01:25:39;97803.60;;;7.60
71205;BMP180;58935;54.498;18.544;2024-02-23T01:28:09;97804.80;;;7.60
71205;BMP180;58935;54.498;18.544;2024-02-23T01:30:39;97800.00;;;7.60
71205;BMP180;58935;54.498;18.544;2024-02-23T01:33:09;97802.20;;;7.60
71205;BMP180;58935;54.498;18.544;2024-02-23T01:35:38;97800.40;;;7.60
71205;BMP180;58935;54.498;18.544;2024-02-23T01:38:09;97799.40;;;7.60
71205;BMP180;58935;54.498;18.544;2024-02-23T01:40:39;97802.20;;;7.64
71205;BMP180;58935;54.498;18.544;2024-02-23T01:43:08;97798.00;;;7.68
71205;BMP180;58935;54.498;18.544;2024-02-23T01:45:38;97789.60;;;7.64
71205;BMP180;58935;54.498;18.544;2024-02-23T01:48:09;97790.80;;;7.60
71205;BMP180;58935;54.498;18.544;2024-02-23T01:50:42;97784.40;;;7.62
71205;BMP180;58935;54.498;18.544;2024-02-23T01:53:13;97785.60;;;7.60
71205;BMP180;58935;54.498;18.544;2024-02-23T01:55:46;97793.60;;;7.60
71205;BMP180;58935;54.498;18.544;2024-02-23T01:58:15;97788.40;;;7.60
71205;BMP180;58935;54.498;18.544;2024-02-23T02:00:46;97788.40;;;7.60
71205;BMP180;58935;54.498;18.544;2024-02-23T02:03:15;97785.00;;;7.60
71205;BMP180;58935;54.498;18.544;2024-02-23T02:05:46;97781.20;;;7.60
71205;BMP180;58935;54.498;18.544;2024-02-23T02:08:16;97784.60;;;7.60
71205;BMP180;58935;54.498;18.544;2024-02-23T02:10:46;97779.20;;;7.60
71205;BMP180;58935;54.498;18.544;2024-02-23T02:13:16;97784.40;;;7.60
71205;BMP180;58935;54.498;18.544;2024-02-23T02:15:45;97787.20;;;7.60
71205;BMP180;58935;54.498;18.544;2024-02-23T02:18:15;97793.80;;;7.60
71205;BMP180;58935;54.498;18.544;2024-02-23T02:20:55;97791.00;;;7.60
71205;BMP180;58935;54.498;18.544;2024-02-23T02:23:26;97793.00;;;7.60
71205;BMP180;58935;54.498;18.544;2024-02-23T02:25:58;97787.60;;;7.60
71205;BMP180;58935;54.498;18.544;2024-02-23T02:28:29;97787.80;;;7.60
71205;BMP180;58935;54.498;18.544;2024-02-23T02:31:00;97783.00;;;7.60
71205;BMP180;58935;54.498;18.544;2024-02-23T02:33:29;97782.20;;;7.60
71205;BMP180;58935;54.498;18.544;2024-02-23T02:35:59;97778.80;;;7.60
71205;BMP180;58935;54.498;18.544;2024-02-23T02:38:28;97778.80;;;7.60
71205;BMP180;58935;54.498;18.544;2024-02-23T02:40:58;97781.80;;;7.60
71205;BMP180;58935;54.498;18.544;2024-02-23T02:43:29;97781.60;;;7.60
71205;BMP180;58935;54.498;18.544;2024-02-23T02:45:59;97780.80;;;7.60
71205;BMP180;58935;54.498;18.544;2024-02-23T02:48:29;97787.60;;;7.60
71205;BMP180;58935;54.498;18.544;2024-02-23T02:50:58;97790.00;;;7.60
71205;BMP180;58935;54.498;18.544;2024-02-23T02:53:28;97790.20;;;7.60
71205;BMP180;58935;54.498;18.544;2024-02-23T02:55:57;97796.00;;;7.60
71205;BMP180;58935;54.498;18.544;2024-02-23T02:58:27;97785.00;;;7.60
71205;BMP180;58935;54.498;18.544;2024-02-23T03:00:56;97795.60;;;7.60
71205;BMP180;58935;54.498;18.544;2024-02-23T03:03:26;97791.00;;;7.60
71205;BMP180;58935;54.498;18.544;2024-02-23T03:05:55;97792.00;;;7.60
71205;BMP180;58935;54.498;18.544;2024-02-23T03:08:25;97785.80;;;7.60
71205;BMP180;58935;54.498;18.544;2024-02-23T03:10:54;97778.00;;;7.60
71205;BMP180;58935;54.498;18.544;2024-02-23T03:13:26;97776.00;;;7.60
71205;BMP180;58935;54.498;18.544;2024-02-23T03:15:56;97786.40;;;7.60
71205;BMP180;58935;54.498;18.544;2024-02-23T03:18:25;97779.60;;;7.60
71205;BMP180;58935;54.498;18.544;2024-02-23T03:20:56;97780.60;;;7.60
71205;BMP180;58935;54.498;18.544;2024-02-23T03:23:25;97776.00;;;7.60
71205;BMP180;58935;54.498;18.544;2024-02-23T03:25:55;97779.80;;;7.60
71205;BMP180;58935;54.498;18.544;2024-02-23T03:28:24;97789.40;;;7.70
71205;BMP180;58935;54.498;18.544;2024-02-23T03:30:54;97794.20;;;7.70
71205;BMP180;58935;54.498;18.544;2024-02-23T03:33:23;97793.00;;;7.70
71205;BMP180;58935;54.498;18.544;2024-02-23T03:35:53;97789.20;;;7.70
71205;BMP180;58935;54.498;18.544;2024-02-23T03:38:23;97787.80;;;7.70
71205;BMP180;58935;54.498;18.544;2024-02-23T03:40:53;97797.00;;;7.70
71205;BMP180;58935;54.498;18.544;2024-02-23T03:43:22;97789.00;;;7.70
71205;BMP180;58935;54.498;18.544;2024-02-23T03:45:55;97800.60;;;7.70
71205;BMP180;58935;54.498;18.544;2024-02-23T03:48:26;97798.40;;;7.70
71205;BMP180;58935;54.498;18.544;2024-02-23T03:50:51;97801.00;;;7.70
71205;BMP180;58935;54.498;18.544;2024-02-23T03:53:17;97806.60;;;7.76
71205;BMP180;58935;54.498;18.544;2024-02-23T03:55:42;97808.60;;;7.80
71205;BMP180;58935;54.498;18.544;2024-02-23T03:58:10;97815.60;;;7.80
71205;BMP180;58935;54.498;18.544;2024-02-23T04:00:35;97816.00;;;7.80
71205;BMP180;58935;54.498;18.544;2024-02-23T04:03:01;97819.80;;;7.80
71205;BMP180;58935;54.498;18.544;2024-02-23T04:05:26;97824.40;;;7.80
71205;BMP180;58935;54.498;18.544;2024-02-23T04:07:51;97820.60;;;7.80
71205;BMP180;58935;54.498;18.544;2024-02-23T04:10:17;97821.40;;;7.80
71205;BMP180;58935;54.498;18.544;2024-02-23T04:12:46;97823.60;;;7.80
71205;BMP180;58935;54.498;18.544;2024-02-23T04:15:12;97825.00;;;7.80
71205;BMP180;58935;54.498;18.544;2024-02-23T04:17:37;97833.60;;;7.84
71205;BMP180;58935;54.498;18.544;2024-02-23T04:20:07;97836.40;;;7.86
71205;BMP180;58935;54.498;18.544;2024-02-23T04:22:33;97835.80;;;7.86
71205;BMP180;58935;54.498;18.544;2024-02-23T04:24:58;97837.40;;;7.90
71205;BMP180;58935;54.498;18.544;2024-02-23T04:27:23;97842.20;;;7.90
71205;BMP180;58935;54.498;18.544;2024-02-23T04:29:51;97844.00;;;7.90
71205;BMP180;58935;54.498;18.544;2024-02-23T04:32:17;97844.20;;;7.90
71205;BMP180;58935;54.498;18.544;2024-02-23T04:34:42;97843.40;;;7.90
71205;BMP180;58935;54.498;18.544;2024-02-23T04:37:07;97845.40;;;7.90
71205;BMP180;58935;54.498;18.544;2024-02-23T04:39:33;97847.20;;;7.90
71205;BMP180;58935;54.498;18.544;2024-02-23T04:41:59;97852.00;;;7.90
71205;BMP180;58935;54.498;18.544;2024-02-23T04:44:24;97858.80;;;7.98
71205;BMP180;58935;54.498;18.544;2024-02-23T04:46:49;97859.40;;;8.00
71205;BMP180;58935;54.498;18.544;2024-02-23T04:49:15;97859.00;;;8.00
71205;BMP180;58935;54.498;18.544;2024-02-23T04:51:42;97863.00;;;8.00
71205;BMP180;58935;54.498;18.544;2024-02-23T04:54:09;97863.80;;;8.00
71205;BMP180;58935;54.498;18.544;2024-02-23T04:56:34;97867.00;;;8.06
71205;BMP180;58935;54.498;18.544;2024-02-23T04:59:02;97868.80;;;8.10
71205;BMP180;58935;54.498;18.544;2024-02-23T05:01:28;97880.60;;;8.10
71205;BMP180;58935;54.498;18.544;2024-02-23T05:03:54;97884.20;;;8.10
71205;BMP180;58935;54.498;18.544;2024-02-23T05:06:19;97888.60;;;8.20
71205;BMP180;58935;54.498;18.544;2024-02-23T05:08:44;97886.20;;;8.20
71205;BMP180;58935;54.498;18.544;2024-02-23T05:11:09;97885.20;;;8.20
71205;BMP180;58935;54.498;18.544;2024-02-23T05:13:35;97886.00;;;8.20
71205;BMP180;58935;54.498;18.544;2024-02-23T05:16:02;97890.00;;;8.20
71205;BMP180;58935;54.498;18.544;2024-02-23T05:18:27;97891.00;;;8.30
71205;BMP180;58935;54.498;18.544;2024-02-23T05:20:53;97896.80;;;8.30
71205;BMP180;58935;54.498;18.544;2024-02-23T05:23:18;97902.40;;;8.30
71205;BMP180;58935;54.498;18.544;2024-02-23T05:25:43;97901.20;;;8.34
71205;BMP180;58935;54.498;18.544;2024-02-23T05:28:09;97905.60;;;8.40
71205;BMP180;58935;54.498;18.544;2024-02-23T05:30:34;97902.80;;;8.40
71205;BMP180;58935;54.498;18.544;2024-02-23T05:33:00;97903.20;;;8.40
71205;BMP180;58935;54.498;18.544;2024-02-23T05:35:30;97908.00;;;8.48
71205;BMP180;58935;54.498;18.544;2024-02-23T05:37:58;97904.40;;;8.50
71205;BMP180;58935;54.498;18.544;2024-02-23T05:40:24;97904.60;;;8.50
71205;BMP180;58935;54.498;18.544;2024-02-23T05:42:49;97910.80;;;8.50
71205;BMP180;58935;54.498;18.544;2024-02-23T05:45:14;97926.20;;;8.60
71205;BMP180;58935;54.498;18.544;2024-02-23T05:47:41;97928.60;;;8.60
71205;BMP180;58935;54.498;18.544;2024-02-23T05:50:08;97935.20;;;8.60
71205;BMP180;58935;54.498;18.544;2024-02-23T05:52:35;97937.00;;;8.70
71205;BMP180;58935;54.498;18.544;2024-02-23T05:55:03;97946.20;;;8.70
71205;BMP180;58935;54.498;18.544;2024-02-23T05:57:29;97950.60;;;8.70
71205;BMP180;58935;54.498;18.544;2024-02-23T05:59:55;97949.00;;;8.80
71205;BMP180;58935;54.498;18.544;2024-02-23T06:02:24;97954.20;;;8.80
71205;BMP180;58935;54.498;18.544;2024-02-23T06:04:49;97959.00;;;8.80
71205;BMP180;58935;54.498;18.544;2024-02-23T06:07:15;97963.20;;;8.80
71205;BMP180;58935;54.498;18.544;2024-02-23T06:09:43;97959.80;;;8.80
71205;BMP180;58935;54.498;18.544;2024-02-23T06:12:09;97961.60;;;8.80
71205;BMP180;58935;54.498;18.544;2024-02-23T06:14:36;97969.20;;;8.90
71205;BMP180;58935;54.498;18.544;2024-02-23T06:17:02;97973.40;;;8.90
71205;BMP180;58935;54.498;18.544;2024-02-23T06:19:28;97975.80;;;8.90
71205;BMP180;58935;54.498;18.544;2024-02-23T06:21:54;97975.00;;;8.90
71205;BMP180;58935;54.498;18.544;2024-02-23T06:24:19;97984.40;;;8.90
71205;BMP180;58935;54.498;18.544;2024-02-23T06:26:45;97988.60;;;8.90
71205;BMP180;58935;54.498;18.544;2024-02-23T06:29:12;97994.60;;;8.90
71205;BMP180;58935;54.498;18.544;2024-02-23T06:31:39;98003.40;;;8.90
71205;BMP180;58935;54.498;18.544;2024-02-23T06:34:05;98010.80;;;8.90
71205;BMP180;58935;54.498;18.544;2024-02-23T06:36:31;98016.40;;;8.90
71205;BMP180;58935;54.498;18.544;2024-02-23T06:38:56;98021.00;;;8.90
71205;BMP180;58935;54.498;18.544;2024-02-23T06:41:22;98031.20;;;8.90
71205;BMP180;58935;54.498;18.544;2024-02-23T06:43:49;98030.80;;;8.90
71205;BMP180;58935;54.498;18.544;2024-02-23T06:46:19;98032.20;;;8.94
71205;BMP180;58935;54.498;18.544;2024-02-23T06:48:46;98045.00;;;8.98
71205;BMP180;58935;54.498;18.544;2024-02-23T06:51:11;98045.80;;;8.98
71205;BMP180;58935;54.498;18.544;2024-02-23T06:53:37;98055.60;;;9.00
71205;BMP180;58935;54.498;18.544;2024-02-23T06:56:03;98065.60;;;9.00
71205;BMP180;58935;54.498;18.544;2024-02-23T06:58:31;98078.60;;;9.06
71205;BMP180;58935;54.498;18.544;2024-02-23T07:00:57;98081.80;;;9.10
71205;BMP180;58935;54.498;18.544;2024-02-23T07:03:22;98095.60;;;9.10
71205;BMP180;58935;54.498;18.544;2024-02-23T07:05:47;98100.20;;;9.10
71205;BMP180;58935;54.498;18.544;2024-02-23T07:08:15;98103.60;;;9.16
71205;BMP180;58935;54.498;18.544;2024-02-23T07:10:41;98116.80;;;9.20
71205;BMP180;58935;54.498;18.544;2024-02-23T07:13:08;98127.20;;;9.20
71205;BMP180;58935;54.498;18.544;2024-02-23T07:15:35;98125.80;;;9.30
71205;BMP180;58935;54.498;18.544;2024-02-23T07:18:01;98133.80;;;9.30
71205;BMP180;58935;54.498;18.544;2024-02-23T07:20:27;98128.00;;;9.38
71205;BMP180;58935;54.498;18.544;2024-02-23T07:22:52;98128.00;;;9.40
71205;BMP180;58935;54.498;18.544;2024-02-23T07:25:21;98139.00;;;9.40
71205;BMP180;58935;54.498;18.544;2024-02-23T07:27:48;98146.20;;;9.50
71205;BMP180;58935;54.498;18.544;2024-02-23T07:30:14;98149.40;;;9.50
71205;BMP180;58935;54.498;18.544;2024-02-23T07:32:42;98152.40;;;9.50
71205;BMP180;58935;54.498;18.544;2024-02-23T07:35:11;98153.60;;;9.60
71205;BMP180;58935;54.498;18.544;2024-02-23T07:37:39;98155.20;;;9.60
71205;BMP180;58935;54.498;18.544;2024-02-23T07:40:05;98154.80;;;9.62
71205;BMP180;58935;54.498;18.544;2024-02-23T07:42:32;98165.60;;;9.70
71205;BMP180;58935;54.498;18.544;2024-02-23T07:44:58;98172.60;;;9.70
71205;BMP180;58935;54.498;18.544;2024-02-23T07:47:24;98176.20;;;9.70
71205;BMP180;58935;54.498;18.544;2024-02-23T07:49:51;98182.60;;;9.76
71205;BMP180;58935;54.498;18.544;2024-02-23T07:52:17;98187.00;;;9.80
71205;BMP180;58935;54.498;18.544;2024-02-23T07:54:42;98196.00;;;9.80
71205;BMP180;58935;54.498;18.544;2024-02-23T07:57:07;98190.00;;;9.88
71205;BMP180;58935;54.498;18.544;2024-02-23T07:59:33;98192.20;;;9.90
71205;BMP180;58935;54.498;18.544;2024-02-23T08:01:59;98201.20;;;9.90
71205;BMP180;58935;54.498;18.544;2024-02-23T08:04:24;98203.00;;;9.96
71205;BMP180;58935;54.498;18.544;2024-02-23T08:06:49;98208.60;;;10.00
71205;BMP180;58935;54.498;18.544;2024-02-23T08:09:16;98212.80;;;10.00
71205;BMP180;58935;54.498;18.544;2024-02-23T08:11:43;98218.00;;;10.00
71205;BMP180;58935;54.498;18.544;2024-02-23T08:14:08;98236.20;;;10.10
71205;BMP180;58935;54.498;18.544;2024-02-23T08:16:34;98238.00;;;10.10
71205;BMP180;58935;54.498;18.544;2024-02-23T08:19:00;98242.60;;;10.10
71205;BMP180;58935;54.498;18.544;2024-02-23T08:21:26;98243.00;;;10.10
71205;BMP180;58935;54.498;18.544;2024-02-23T08:23:54;98248.40;;;10.10
71205;BMP180;58935;54.498;18.544;2024-02-23T08:26:19;98253.40;;;10.10
71205;BMP180;58935;54.498;18.544;2024-02-23T08:28:45;98260.00;;;10.10
71205;BMP180;58935;54.498;18.544;2024-02-23T08:31:10;98261.40;;;10.12
71205;BMP180;58935;54.498;18.544;2024-02-23T08:33:35;98264.20;;;10.12
71205;BMP180;58935;54.498;18.544;2024-02-23T08:36:01;98279.80;;;10.20
71205;BMP180;58935;54.498;18.544;2024-02-23T08:38:26;98286.60;;;10.20
71205;BMP180;58935;54.498;18.544;2024-02-23T08:40:54;98285.80;;;10.20
71205;BMP180;58935;54.498;18.544;2024-02-23T08:43:19;98269.60;;;10.20
71205;BMP180;58935;54.498;18.544;2024-02-23T08:45:45;98284.80;;;10.20
71205;BMP180;58935;54.498;18.544;2024-02-23T08:48:10;98291.00;;;10.30
71205;BMP180;58935;54.498;18.544;2024-02-23T08:50:40;98286.40;;;10.30
71205;BMP180;58935;54.498;18.544;2024-02-23T08:53:08;98299.40;;;10.30
71205;BMP180;58935;54.498;18.544;2024-02-23T08:55:35;98304.40;;;10.30
71205;BMP180;58935;54.498;18.544;2024-02-23T08:58:02;98308.40;;;10.30
71205;BMP180;58935;54.498;18.544;2024-02-23T09:00:30;98328.80;;;10.30
71205;BMP180;58935;54.498;18.544;2024-02-23T09:03:00;98335.00;;;10.30
71205;BMP180;58935;54.498;18.544;2024-02-23T09:05:26;98344.20;;;10.30
71205;BMP180;58935;54.498;18.544;2024-02-23T09:07:51;98359.60;;;10.30
71205;BMP180;58935;54.498;18.544;2024-02-23T09:10:19;98366.00;;;10.38
71205;BMP180;58935;54.498;18.544;2024-02-23T09:12:45;98365.20;;;10.40
71205;BMP180;58935;54.498;18.544;2024-02-23T09:15:14;98377.60;;;10.40
71205;BMP180;58935;54.498;18.544;2024-02-23T09:17:40;98380.40;;;10.40
71205;BMP180;58935;54.498;18.544;2024-02-23T09:20:07;98376.80;;;10.40
71205;BMP180;58935;54.498;18.544;2024-02-23T09:22:35;98384.00;;;10.30
71205;BMP180;58935;54.498;18.544;2024-02-23T09:25:02;98396.80;;;10.30
71205;BMP180;58935;54.498;18.544;2024-02-23T09:27:28;98397.40;;;10.30
71205;BMP180;58935;54.498;18.544;2024-02-23T09:29:58;98400.80;;;10.30
71205;BMP180;58935;54.498;18.544;2024-02-23T09:32:28;98410.60;;;10.30
71205;BMP180;58935;54.498;18.544;2024-02-23T09:34:53;98413.00;;;10.30
71205;BMP180;58935;54.498;18.544;2024-02-23T09:37:21;98422.20;;;10.30
71205;BMP180;58935;54.498;18.544;2024-02-23T09:39:46;98419.60;;;10.30
71205;BMP180;58935;54.498;18.544;2024-02-23T09:42:12;98435.40;;;10.30
71205;BMP180;58935;54.498;18.544;2024-02-23T09:44:37;98437.00;;;10.30
71205;BMP180;58935;54.498;18.544;2024-02-23T09:47:04;98434.60;;;10.30
71205;BMP180;58935;54.498;18.544;2024-02-23T09:49:38;98429.60;;;10.30
71205;BMP180;58935;54.498;18.544;2024-02-23T09:52:07;98442.80;;;10.30
71205;BMP180;58935;54.498;18.544;2024-02-23T09:54:33;98439.00;;;10.30
71205;BMP180;58935;54.498;18.544;2024-02-23T09:57:00;98448.80;;;10.30
71205;BMP180;58935;54.498;18.544;2024-02-23T09:59:28;98452.00;;;10.32
71205;BMP180;58935;54.498;18.544;2024-02-23T10:01:58;98442.80;;;10.36
71205;BMP180;58935;54.498;18.544;2024-02-23T10:04:27;98463.60;;;10.40
71205;BMP180;58935;54.498;18.544;2024-02-23T10:06:56;98473.00;;;10.40
71205;BMP180;58935;54.498;18.544;2024-02-23T10:09:21;98480.40;;;10.46
71205;BMP180;58935;54.498;18.544;2024-02-23T10:11:52;98499.80;;;10.50
71205;BMP180;58935;54.498;18.544;2024-02-23T10:14:21;98506.40;;;10.50
71205;BMP180;58935;54.498;18.544;2024-02-23T10:16:51;98500.80;;;10.50
71205;BMP180;58935;54.498;18.544;2024-02-23T10:19:19;98503.20;;;10.54
71205;BMP180;58935;54.498;18.544;2024-02-23T10:21:45;98524.80;;;10.52
71205;BMP180;58935;54.498;18.544;2024-02-23T10:24:11;98522.60;;;10.50
71205;BMP180;58935;54.498;18.544;2024-02-23T10:26:36;98536.80;;;10.50
71205;BMP180;58935;54.498;18.544;2024-02-23T10:29:02;98542.60;;;10.50
71205;BMP180;58935;54.498;18.544;2024-02-23T10:31:34;98543.80;;;10.50
71205;BMP180;58935;54.498;18.544;2024-02-23T10:34:08;98553.20;;;10.40
71205;BMP180;58935;54.498;18.544;2024-02-23T10:36:42;98560.40;;;10.40
71205;BMP180;58935;54.498;18.544;2024-02-23T10:39:09;98568.40;;;10.40
71205;BMP180;58935;54.498;18.544;2024-02-23T10:41:35;98570.00;;;10.40
71205;BMP180;58935;54.498;18.544;2024-02-23T10:44:03;98582.20;;;10.40
71205;BMP180;58935;54.498;18.544;2024-02-23T10:46:32;98595.20;;;10.40
71205;BMP180;58935;54.498;18.544;2024-02-23T10:48:59;98603.40;;;10.40
71205;BMP180;58935;54.498;18.544;2024-02-23T10:51:28;98606.20;;;10.50
71205;BMP180;58935;54.498;18.544;2024-02-23T10:53:53;98598.00;;;10.50
71205;BMP180;58935;54.498;18.544;2024-02-23T10:56:19;98588.60;;;10.50
71205;BMP180;58935;54.498;18.544;2024-02-23T10:58:45;98609.60;;;10.50
71205;BMP180;58935;54.498;18.544;2024-02-23T11:01:14;98599.00;;;10.50
71205;BMP180;58935;54.498;18.544;2024-02-23T11:03:42;98602.20;;;10.60
71205;BMP180;58935;54.498;18.544;2024-02-23T11:06:09;98617.40;;;10.60
71205;BMP180;58935;54.498;18.544;2024-02-23T11:08:35;98623.00;;;10.60
71205;BMP180;58935;54.498;18.544;2024-02-23T11:11:08;98615.20;;;10.60
71205;BMP180;58935;54.498;18.544;2024-02-23T11:13:36;98635.40;;;10.54
71205;BMP180;58935;54.498;18.544;2024-02-23T11:16:07;98640.80;;;10.52
71205;BMP180;58935;54.498;18.544;2024-02-23T11:18:35;98630.80;;;10.50
71205;BMP180;58935;54.498;18.544;2024-02-23T11:21:09;98631.40;;;10.50
71205;BMP180;58935;54.498;18.544;2024-02-23T11:23:42;98650.80;;;10.50
71205;BMP180;58935;54.498;18.544;2024-02-23T11:26:12;98651.40;;;10.50
71205;BMP180;58935;54.498;18.544;2024-02-23T11:28:50;98653.80;;;10.50
71205;BMP180;58935;54.498;18.544;2024-02-23T11:31:21;98674.60;;;10.50
71205;BMP180;58935;54.498;18.544;2024-02-23T11:33:51;98674.20;;;10.50
71205;BMP180;58935;54.498;18.544;2024-02-23T11:36:34;98680.00;;;10.50
71205;BMP180;58935;54.498;18.544;2024-02-23T11:39:02;98680.40;;;10.60
71205;BMP180;58935;54.498;18.544;2024-02-23T11:41:30;98688.00;;;10.50
71205;BMP180;58935;54.498;18.544;2024-02-23T11:43:56;98696.40;;;10.50
71205;BMP180;58935;54.498;18.544;2024-02-23T11:46:24;98697.60;;;10.50
71205;BMP180;58935;54.498;18.544;2024-02-23T11:48:50;98696.60;;;10.50
71205;BMP180;58935;54.498;18.544;2024-02-23T11:51:20;98697.60;;;10.50
71205;BMP180;58935;54.498;18.544;2024-02-23T11:53:47;98695.00;;;10.50
71205;BMP180;58935;54.498;18.544;2024-02-23T11:56:13;98699.40;;;10.50
71205;BMP180;58935;54.498;18.544;2024-02-23T11:58:40;98695.00;;;10.60
71205;BMP180;58935;54.498;18.544;2024-02-23T12:01:06;98702.80;;;10.60
71205;BMP180;58935;54.498;18.544;2024-02-23T12:03:33;98708.00;;;10.70
71205;BMP180;58935;54.498;18.544;2024-02-23T12:06:01;98712.40;;;10.70
71205;BMP180;58935;54.498;18.544;2024-02-23T12:08:29;98716.80;;;10.74
71205;BMP180;58935;54.498;18.544;2024-02-23T12:10:56;98720.60;;;10.80
71205;BMP180;58935;54.498;18.544;2024-02-23T12:13:23;98723.40;;;10.90
71205;BMP180;58935;54.498;18.544;2024-02-23T12:15:52;98734.40;;;10.90
71205;BMP180;58935;54.498;18.544;2024-02-23T12:18:21;98739.20;;;11.00
71205;BMP180;58935;54.498;18.544;2024-02-23T12:20:49;98745.40;;;11.12
71205;BMP180;58935;54.498;18.544;2024-02-23T12:23:15;98751.40;;;11.32
71205;BMP180;58935;54.498;18.544;2024-02-23T12:25:51;98752.60;;;11.50
71205;BMP180;58935;54.498;18.544;2024-02-23T12:28:18;98750.20;;;11.54
71205;BMP180;58935;54.498;18.544;2024-02-23T12:30:43;98746.00;;;11.60
71205;BMP180;58935;54.498;18.544;2024-02-23T12:33:15;98754.80;;;11.50
71205;BMP180;58935;54.498;18.544;2024-02-23T12:35:40;98759.00;;;11.42
71205;BMP180;58935;54.498;18.544;2024-02-23T12:38:08;98759.20;;;11.40
71205;BMP180;58935;54.498;18.544;2024-02-23T12:40:34;98767.20;;;11.40
71205;BMP180;58935;54.498;18.544;2024-02-23T12:42:59;98767.60;;;11.48
71205;BMP180;58935;54.498;18.544;2024-02-23T12:45:24;98762.00;;;11.46
71205;BMP180;58935;54.498;18.544;2024-02-23T12:47:53;98766.80;;;11.40
71205;BMP180;58935;54.498;18.544;2024-02-23T12:50:18;98776.60;;;11.40
71205;BMP180;58935;54.498;18.544;2024-02-23T12:52:43;98783.60;;;11.40
71205;BMP180;58935;54.498;18.544;2024-02-23T12:55:08;98774.40;;;11.40
71205;BMP180;58935;54.498;18.544;2024-02-23T12:57:34;98772.00;;;11.50
71205;BMP180;58935;54.498;18.544;2024-02-23T12:59:59;98778.80;;;11.50
71205;BMP180;58935;54.498;18.544;2024-02-23T13:02:24;98775.00;;;11.50
71205;BMP180;58935;54.498;18.544;2024-02-23T13:04:50;98779.40;;;11.50
71205;BMP180;58935;54.498;18.544;2024-02-23T13:07:15;98778.60;;;11.50
71205;BMP180;58935;54.498;18.544;2024-02-23T13:09:42;98778.60;;;11.40
71205;BMP180;58935;54.498;18.544;2024-02-23T13:12:10;98781.40;;;11.40
71205;BMP180;58935;54.498;18.544;2024-02-23T13:14:38;98778.80;;;11.50
71205;BMP180;58935;54.498;18.544;2024-02-23T13:17:03;98780.20;;;11.50
71205;BMP180;58935;54.498;18.544;2024-02-23T13:19:29;98789.60;;;11.50
71205;BMP180;58935;54.498;18.544;2024-02-23T13:21:54;98798.20;;;11.50
71205;BMP180;58935;54.498;18.544;2024-02-23T13:24:20;98805.40;;;11.40
71205;BMP180;58935;54.498;18.544;2024-02-23T13:26:46;98808.60;;;11.30
71205;BMP180;58935;54.498;18.544;2024-02-23T13:29:13;98818.40;;;11.30
71205;BMP180;58935;54.498;18.544;2024-02-23T13:31:41;98821.40;;;11.20
71205;BMP180;58935;54.498;18.544;2024-02-23T13:34:09;98826.20;;;11.20
71205;BMP180;58935;54.498;18.544;2024-02-23T13:36:35;98841.60;;;11.10
71205;BMP180;58935;54.498;18.544;2024-02-23T13:39:03;98845.40;;;11.10
71205;BMP180;58935;54.498;18.544;2024-02-23T13:41:28;98848.20;;;11.00
71205;BMP180;58935;54.498;18.544;2024-02-23T13:43:54;98859.40;;;10.94
71205;BMP180;58935;54.498;18.544;2024-02-23T13:46:20;98864.60;;;10.90
71205;BMP180;58935;54.498;18.544;2024-02-23T13:48:45;98874.60;;;10.90
71205;BMP180;58935;54.498;18.544;2024-02-23T13:51:15;98872.00;;;10.80
71205;BMP180;58935;54.498;18.544;2024-02-23T13:53:40;98876.20;;;10.80
71205;BMP180;58935;54.498;18.544;2024-02-23T13:56:08;98876.20;;;10.80
71205;BMP180;58935;54.498;18.544;2024-02-23T13:58:33;98877.20;;;10.80
71205;BMP180;58935;54.498;18.544;2024-02-23T14:00:59;98889.40;;;10.82
71205;BMP180;58935;54.498;18.544;2024-02-23T14:03:26;98889.80;;;10.80
71205;BMP180;58935;54.498;18.544;2024-02-23T14:05:52;98889.40;;;10.80
71205;BMP180;58935;54.498;18.544;2024-02-23T14:08:17;98890.20;;;10.80
71205;BMP180;58935;54.498;18.544;2024-02-23T14:10:42;98899.80;;;10.88
71205;BMP180;58935;54.498;18.544;2024-02-23T14:13:08;98901.00;;;10.90
71205;BMP180;58935;54.498;18.544;2024-02-23T14:15:34;98908.40;;;10.90
71205;BMP180;58935;54.498;18.544;2024-02-23T14:17:59;98912.20;;;10.90
71205;BMP180;58935;54.498;18.544;2024-02-23T14:20:24;98917.20;;;10.90
71205;BMP180;58935;54.498;18.544;2024-02-23T14:22:54;98913.40;;;10.90